Time;durP1;ratioP1;P1;durP2;ratioP2;P2;SDS_P1;SDS_P2;PMS_P1;PMS_P2;Temp;Humidity;BMP_temperature;BMP_pressure;BME280_temperature;BME280_humidity;BME280_pressure;Samples;Min_cycle;Max_cycle;Signal;HPM_P1;HPM_P2
2022/12/20 00:02:30;;;;;;;51.43;20.80;;;-0.80;99.90;;;;;;5075148;27;20229;-68
2022/12/20 00:05:17;;;;;;;54.37;21.73;;;-0.80;99.90;;;;;;5044908;27;20224;-68
2022/12/20 00:08:04;;;;;;;52.73;21.30;;;-0.80;99.90;;;;;;5069293;27;20251;-68
2022/12/20 00:10:53;;;;;;;52.13;19.10;;;-0.80;99.90;;;;;;5052983;27;20208;-68
2022/12/20 00:13:40;;;;;;;54.43;20.97;;;-0.80;99.90;;;;;;5083615;27;20212;-68
2022/12/20 00:16:28;;;;;;;50.33;20.60;;;-0.80;99.90;;;;;;5047074;28;20205;-68
2022/12/20 00:19:15;;;;;;;59.10;20.83;;;-0.80;99.90;;;;;;5046365;28;20204;-68
2022/12/20 00:22:03;;;;;;;59.10;21.67;;;-0.90;99.90;;;;;;5044751;28;20288;-68
2022/12/20 00:24:50;;;;;;;55.70;20.33;;;-0.80;99.90;;;;;;5054800;28;20215;-68
2022/12/20 00:27:38;;;;;;;54.73;22.20;;;-0.80;99.90;;;;;;5050116;28;20212;-68
2022/12/20 00:30:25;;;;;;;55.93;21.80;;;-0.80;99.90;;;;;;5050280;28;20198;-68
2022/12/20 00:33:13;;;;;;;56.07;20.13;;;-0.80;99.90;;;;;;5041206;28;20206;-68
2022/12/20 00:36:00;;;;;;;59.63;21.83;;;-0.70;99.90;;;;;;5047168;28;20311;-68
2022/12/20 00:38:47;;;;;;;50.90;20.13;;;-0.80;99.90;;;;;;5073450;27;20213;-68
2022/12/20 00:41:34;;;;;;;56.10;21.17;;;-0.80;99.90;;;;;;5047274;27;20208;-68
2022/12/20 00:44:23;;;;;;;55.63;21.23;;;-0.80;99.90;;;;;;5064463;27;20201;-68
2022/12/20 00:47:10;;;;;;;55.03;21.47;;;-0.80;99.90;;;;;;5034974;27;20675;-68
2022/12/20 00:49:57;;;;;;;64.67;22.57;;;-0.80;99.90;;;;;;5052908;27;20217;-68
2022/12/20 00:52:44;;;;;;;59.60;22.60;;;-0.80;99.90;;;;;;5063266;27;20680;-68
2022/12/20 00:55:31;;;;;;;55.63;22.17;;;-0.80;99.90;;;;;;5060038;27;20204;-68
2022/12/20 00:58:18;;;;;;;54.97;20.83;;;-0.70;99.90;;;;;;5048782;27;20201;-68
2022/12/20 01:01:15;;;;;;;57.97;22.97;;;-0.70;99.90;;;;;;5044183;27;20205;-68
2022/12/20 01:04:02;;;;;;;54.73;22.60;;;-0.60;99.90;;;;;;5044495;27;20225;-68
2022/12/20 01:06:49;;;;;;;60.23;22.93;;;-0.60;99.90;;;;;;5050251;27;20209;-69
2022/12/20 01:09:36;;;;;;;77.63;26.73;;;-0.60;99.90;;;;;;5041335;27;20426;-68
2022/12/20 01:12:23;;;;;;;98.57;35.20;;;-0.60;99.90;;;;;;5045679;27;20306;-68
2022/12/20 01:15:11;;;;;;;77.93;29.50;;;-0.60;99.90;;;;;;5060647;27;20236;-68
2022/12/20 01:18:00;;;;;;;76.67;27.30;;;-0.60;99.90;;;;;;5059989;27;20243;-68
2022/12/20 01:20:47;;;;;;;70.50;26.57;;;-0.50;99.90;;;;;;5066081;27;20472;-68
2022/12/20 01:23:34;;;;;;;77.60;25.73;;;-0.50;99.90;;;;;;5057733;27;20205;-68
2022/12/20 01:26:22;;;;;;;67.93;26.57;;;-0.50;99.90;;;;;;5068226;27;20278;-68
2022/12/20 01:29:09;;;;;;;62.00;25.17;;;-0.50;99.90;;;;;;5052217;27;20310;-68
2022/12/20 01:31:56;;;;;;;65.43;24.47;;;-0.50;99.90;;;;;;5051504;27;20289;-68
2022/12/20 01:34:45;;;;;;;58.97;22.80;;;-0.50;99.90;;;;;;5053303;27;20603;-68
2022/12/20 01:37:32;;;;;;;63.53;26.67;;;-0.50;99.90;;;;;;5053157;27;20284;-68
2022/12/20 01:40:19;;;;;;;51.70;20.37;;;-0.50;99.90;;;;;;5051091;27;20193;-68
2022/12/20 01:43:09;;;;;;;43.73;18.43;;;-0.50;99.90;;;;;;5049112;27;20197;-68
2022/12/20 01:45:56;;;;;;;49.57;18.87;;;-0.60;99.90;;;;;;5051656;27;20312;-68
2022/12/20 01:48:43;;;;;;;43.90;17.00;;;-0.50;99.90;;;;;;5068827;27;20304;-68
2022/12/20 01:51:33;;;;;;;43.97;17.87;;;-0.50;99.90;;;;;;5052829;27;20205;-68
2022/12/20 01:54:22;;;;;;;41.70;15.83;;;-0.50;99.90;;;;;;5044178;27;20229;-68
2022/12/20 01:57:12;;;;;;;54.23;18.10;;;-0.60;99.90;;;;;;5049985;27;20413;-68
2022/12/20 01:59:59;;;;;;;45.20;17.37;;;-0.50;99.90;;;;;;5051909;27;20213;-69
2022/12/20 02:02:47;;;;;;;48.87;18.73;;;-0.50;99.90;;;;;;5058515;27;20707;-68
2022/12/20 02:05:35;;;;;;;52.53;17.73;;;-0.50;99.90;;;;;;5048116;27;20350;-68
2022/12/20 02:08:23;;;;;;;35.27;14.20;;;-0.50;99.90;;;;;;5051930;27;20201;-68
2022/12/20 02:11:17;;;;;;;43.73;16.20;;;-0.40;99.90;;;;;;5056449;27;20225;-68
2022/12/20 02:14:15;;;;;;;46.97;17.57;;;-0.40;99.90;;;;;;5056885;27;20193;-68
2022/12/20 02:17:04;;;;;;;46.53;17.43;;;-0.40;99.90;;;;;;5048076;27;20250;-69
2022/12/20 02:20:18;;;;;;;43.17;17.07;;;-0.40;99.90;;;;;;5051427;27;20359;-68
2022/12/20 02:23:38;;;;;;;38.47;14.13;;;-0.40;99.90;;;;;;5062985;27;20280;-69
2022/12/20 02:27:01;;;;;;;43.70;16.97;;;-0.50;99.90;;;;;;5045830;27;20224;-69
2022/12/20 02:30:07;;;;;;;40.43;15.87;;;-0.50;99.90;;;;;;5053367;27;20235;-68
2022/12/20 02:32:58;;;;;;;41.80;16.17;;;-0.50;99.90;;;;;;5046661;27;20208;-69
2022/12/20 02:35:46;;;;;;;45.47;16.47;;;-0.50;99.90;;;;;;5064710;27;20336;-68
2022/12/20 02:38:34;;;;;;;36.67;15.10;;;-0.50;99.90;;;;;;5043634;27;20739;-68
2022/12/20 02:41:22;;;;;;;40.20;14.53;;;-0.50;99.90;;;;;;5047768;27;20197;-68
2022/12/20 02:47:23;;;;;;;42.67;15.17;;;-0.50;99.90;;;;;;5053979;27;20288;-69
2022/12/20 02:50:10;;;;;;;41.47;15.00;;;-0.50;99.90;;;;;;5050275;27;20331;-68
2022/12/20 02:52:57;;;;;;;42.50;16.00;;;-0.40;99.90;;;;;;5046698;27;20246;-68
2022/12/20 02:55:46;;;;;;;37.50;15.07;;;-0.40;99.90;;;;;;5046977;27;20209;-68
2022/12/20 02:58:38;;;;;;;37.90;14.73;;;-0.30;99.90;;;;;;5049635;27;20331;-69
2022/12/20 03:01:26;;;;;;;41.90;15.70;;;-0.30;99.90;;;;;;5053276;27;20202;-68
2022/12/20 03:04:15;;;;;;;45.57;17.03;;;-0.30;99.90;;;;;;5046796;27;20210;-69
2022/12/20 03:07:05;;;;;;;38.27;16.17;;;-0.20;99.90;;;;;;5058363;27;20202;-68
2022/12/20 03:09:52;;;;;;;36.73;14.63;;;-0.20;99.90;;;;;;5051540;27;20221;-68
2022/12/20 03:12:39;;;;;;;39.57;16.23;;;-0.30;99.90;;;;;;5071282;27;20678;-69
2022/12/20 03:15:26;;;;;;;43.00;16.50;;;-0.40;99.90;;;;;;5051315;27;20209;-69
2022/12/20 03:18:13;;;;;;;40.17;15.97;;;-0.40;99.90;;;;;;5046642;27;20208;-69
2022/12/20 03:21:02;;;;;;;41.87;16.33;;;-0.50;99.90;;;;;;5053396;27;20213;-69
2022/12/20 03:23:49;;;;;;;34.67;15.80;;;-0.50;99.90;;;;;;5057551;27;20201;-68
2022/12/20 03:26:36;;;;;;;40.33;15.50;;;-0.50;99.90;;;;;;5056673;27;20268;-68
2022/12/20 03:29:23;;;;;;;41.57;15.77;;;-0.50;99.90;;;;;;5055743;27;20312;-68
2022/12/20 03:32:10;;;;;;;38.33;15.37;;;-0.50;99.90;;;;;;5051025;27;20193;-68
2022/12/20 03:34:58;;;;;;;39.77;15.07;;;-0.60;99.90;;;;;;5070184;27;20201;-69
2022/12/20 03:37:46;;;;;;;39.70;16.07;;;-0.70;99.90;;;;;;5048310;27;20201;-69
2022/12/20 03:40:33;;;;;;;37.93;16.00;;;-0.80;99.90;;;;;;5055069;27;20254;-69
2022/12/20 03:43:21;;;;;;;44.87;15.60;;;-0.90;99.90;;;;;;5062734;27;20230;-68
2022/12/20 03:46:08;;;;;;;39.23;16.80;;;-0.90;99.90;;;;;;5065987;27;20221;-69
2022/12/20 03:48:55;;;;;;;40.23;16.70;;;-1.00;99.90;;;;;;5071417;27;20251;-69
2022/12/20 03:51:42;;;;;;;45.23;15.60;;;-1.00;99.90;;;;;;5049369;27;20197;-69
2022/12/20 03:54:31;;;;;;;43.73;15.60;;;-1.00;99.90;;;;;;5051397;27;20251;-69
2022/12/20 03:57:18;;;;;;;42.97;15.70;;;-1.00;99.90;;;;;;5043966;27;20272;-68
2022/12/20 04:00:06;;;;;;;35.83;15.27;;;-1.00;99.90;;;;;;5050873;27;20197;-69
2022/12/20 04:02:54;;;;;;;38.67;16.40;;;-1.00;99.90;;;;;;5042530;27;20565;-68
2022/12/20 04:05:41;;;;;;;38.23;15.20;;;-1.10;99.90;;;;;;5047349;27;20269;-68
2022/12/20 04:08:29;;;;;;;37.63;15.40;;;-1.10;99.90;;;;;;5048316;27;20205;-68
2022/12/20 04:11:18;;;;;;;40.00;15.03;;;-1.10;99.90;;;;;;5049206;27;20205;-68
2022/12/20 04:14:05;;;;;;;37.67;15.63;;;-1.00;99.90;;;;;;5057210;27;20229;-68
2022/12/20 04:16:52;;;;;;;38.17;15.27;;;-1.10;99.90;;;;;;5038796;27;20244;-68
2022/12/20 04:19:39;;;;;;;36.13;13.97;;;-1.10;99.90;;;;;;5047382;27;20205;-68
2022/12/20 04:22:26;;;;;;;37.80;14.70;;;-1.10;99.90;;;;;;5039575;27;20201;-69
2022/12/20 04:25:13;;;;;;;28.70;12.03;;;-1.00;99.90;;;;;;5046325;27;20658;-68
2022/12/20 04:28:02;;;;;;;35.63;13.93;;;-1.10;99.90;;;;;;5047502;27;20241;-69
2022/12/20 04:30:49;;;;;;;33.37;13.10;;;-1.20;99.90;;;;;;5055733;27;20264;-71
2022/12/20 04:33:36;;;;;;;36.03;14.83;;;-1.20;99.90;;;;;;5049526;27;20251;-69
2022/12/20 04:36:23;;;;;;;39.67;16.27;;;-1.20;99.90;;;;;;5052990;27;20648;-71
2022/12/20 04:39:11;;;;;;;37.57;15.57;;;-1.30;99.90;;;;;;5060554;27;20236;-71
2022/12/20 04:41:58;;;;;;;41.70;16.13;;;-1.30;99.90;;;;;;5063667;27;20294;-70
2022/12/20 04:44:46;;;;;;;38.47;15.20;;;-1.20;99.90;;;;;;5051427;27;20254;-71
2022/12/20 04:47:33;;;;;;;39.43;15.57;;;-1.30;99.90;;;;;;5050514;27;20241;-72
2022/12/20 04:50:21;;;;;;;40.63;15.07;;;-1.20;99.90;;;;;;5053090;27;20350;-71
2022/12/20 04:56:17;;;;;;;36.47;14.27;;;-1.20;99.90;;;;;;5040562;27;20608;-68
2022/12/20 04:59:04;;;;;;;36.57;15.60;;;-1.20;99.90;;;;;;5045778;27;20673;-67
2022/12/20 05:01:53;;;;;;;33.87;12.67;;;-1.20;99.90;;;;;;5044910;27;20198;-70
2022/12/20 05:04:40;;;;;;;41.70;14.73;;;-1.10;99.90;;;;;;5048972;27;20261;-70
2022/12/20 05:07:27;;;;;;;42.83;15.23;;;-1.10;99.90;;;;;;5045590;27;20205;-69
2022/12/20 05:10:14;;;;;;;36.53;15.50;;;-1.20;99.90;;;;;;5068226;27;20707;-70
2022/12/20 05:13:01;;;;;;;40.83;15.57;;;-1.20;99.90;;;;;;5041641;27;20204;-67
2022/12/20 05:15:51;;;;;;;38.90;15.63;;;-1.20;99.90;;;;;;5045944;27;20485;-70
2022/12/20 05:18:39;;;;;;;34.67;14.17;;;-1.20;99.90;;;;;;5054164;27;20228;-70
2022/12/20 05:27:36;;;;;;;39.80;16.23;;;-1.20;99.90;;;;;;5064142;27;20282;-71
2022/12/20 05:30:23;;;;;;;42.07;15.37;;;-1.20;99.90;;;;;;5074009;27;20225;-71
2022/12/20 05:33:10;;;;;;;52.43;18.27;;;-1.20;99.90;;;;;;5045239;27;20201;-71
2022/12/20 05:35:58;;;;;;;40.53;15.70;;;-1.30;99.90;;;;;;5051824;27;20209;-71
2022/12/20 05:38:46;;;;;;;39.50;14.50;;;-1.30;99.90;;;;;;5047178;27;20277;-71
2022/12/20 05:41:33;;;;;;;40.37;16.00;;;-1.20;99.90;;;;;;5044204;27;20288;-70
2022/12/20 05:44:21;;;;;;;44.20;16.83;;;-1.30;99.90;;;;;;5063505;27;20697;-71
2022/12/20 05:47:08;;;;;;;41.87;16.00;;;-1.30;99.90;;;;;;5054004;27;20232;-71
2022/12/20 05:49:55;;;;;;;44.03;16.30;;;-1.40;99.90;;;;;;5047365;27;20308;-69
2022/12/20 05:52:44;;;;;;;42.70;17.20;;;-1.40;99.90;;;;;;5045778;27;20205;-69
2022/12/20 05:55:31;;;;;;;45.23;18.43;;;-1.40;99.90;;;;;;5049608;27;20241;-70
2022/12/20 05:58:18;;;;;;;42.90;15.87;;;-1.40;99.90;;;;;;5040645;27;20212;-71
2022/12/20 06:01:06;;;;;;;46.27;17.73;;;-1.40;99.90;;;;;;5048890;27;20284;-69
2022/12/20 06:03:53;;;;;;;46.40;17.80;;;-1.40;99.90;;;;;;5045817;27;20297;-69
2022/12/20 06:06:40;;;;;;;48.53;18.13;;;-1.40;99.90;;;;;;5056753;27;20664;-68
2022/12/20 06:09:30;;;;;;;48.40;17.87;;;-1.40;99.90;;;;;;5046527;27;20247;-69
2022/12/20 06:12:17;;;;;;;47.33;17.23;;;-1.40;99.90;;;;;;5045229;27;20205;-69
2022/12/20 06:15:04;;;;;;;46.60;17.40;;;-1.40;99.90;;;;;;5055508;27;20656;-69
2022/12/20 06:17:52;;;;;;;45.27;17.40;;;-1.50;99.90;;;;;;5068256;27;20256;-69
2022/12/20 06:20:39;;;;;;;44.63;17.03;;;-1.60;99.90;;;;;;5044143;27;20197;-69
2022/12/20 06:23:26;;;;;;;49.43;18.07;;;-1.60;99.90;;;;;;5050106;27;20194;-69
2022/12/20 06:26:15;;;;;;;44.67;17.47;;;-1.60;99.90;;;;;;5044995;27;20205;-69
2022/12/20 06:29:02;;;;;;;49.13;18.90;;;-1.70;99.90;;;;;;5051750;27;20205;-69
2022/12/20 06:31:49;;;;;;;49.97;18.57;;;-1.60;99.90;;;;;;5047290;27;20354;-68
2022/12/20 06:34:36;;;;;;;46.70;17.27;;;-1.60;99.90;;;;;;5043154;27;20209;-69
2022/12/20 06:37:24;;;;;;;49.33;18.37;;;-1.60;99.90;;;;;;5045833;27;20632;-69
2022/12/20 06:40:12;;;;;;;47.60;16.30;;;-1.60;99.90;;;;;;5046238;27;20285;-69
2022/12/20 06:43:00;;;;;;;44.63;17.67;;;-1.60;99.90;;;;;;5046616;27;20289;-69
2022/12/20 06:45:48;;;;;;;47.87;18.33;;;-1.60;99.90;;;;;;5051267;27;20328;-69
2022/12/20 06:48:35;;;;;;;47.40;18.70;;;-1.60;99.90;;;;;;5044545;27;20324;-70
2022/12/20 06:51:22;;;;;;;47.13;18.73;;;-1.60;99.90;;;;;;5038522;27;20217;-70
2022/12/20 06:54:09;;;;;;;50.67;17.83;;;-1.60;99.90;;;;;;5042949;28;20245;-69
2022/12/20 06:56:57;;;;;;;54.80;20.07;;;-1.60;99.90;;;;;;5049139;27;20675;-69
2022/12/20 06:59:45;;;;;;;54.17;19.70;;;-1.50;99.90;;;;;;5046639;27;20258;-70
2022/12/20 07:02:32;;;;;;;46.20;16.90;;;-1.50;99.90;;;;;;5041683;27;20292;-69
2022/12/20 07:05:19;;;;;;;43.33;18.53;;;-1.50;99.90;;;;;;5084887;27;21597;-70
2022/12/20 07:08:07;;;;;;;41.33;16.30;;;-1.50;99.90;;;;;;5042364;27;20669;-70
2022/12/20 07:10:55;;;;;;;47.60;18.33;;;-1.50;99.90;;;;;;5072886;27;20213;-70
2022/12/20 07:13:42;;;;;;;45.27;17.43;;;-1.50;99.90;;;;;;5047474;27;20198;-70
2022/12/20 07:16:31;;;;;;;50.30;18.87;;;-1.50;99.90;;;;;;5065740;27;20256;-70
2022/12/20 07:19:18;;;;;;;54.30;18.77;;;-1.40;99.90;;;;;;5050726;27;20619;-70
2022/12/20 07:22:05;;;;;;;136.63;21.73;;;-1.30;99.90;;;;;;5033268;27;20197;-69
2022/12/20 07:24:52;;;;;;;44.67;17.07;;;-1.10;99.90;;;;;;5039254;27;20419;-70
2022/12/20 07:27:40;;;;;;;56.93;19.57;;;-1.10;1.00;;;;;;5048204;27;20214;-70
2022/12/20 07:30:27;;;;;;;48.30;18.97;;;-1.00;1.00;;;;;;5044978;27;20228;-69
2022/12/20 07:33:15;;;;;;;49.93;19.00;;;-0.90;99.90;;;;;;5043543;27;20206;-69
2022/12/20 07:36:03;;;;;;;48.77;19.20;;;-0.90;1.00;;;;;;5037171;27;20353;-69
2022/12/20 07:38:50;;;;;;;53.37;19.73;;;-0.80;1.00;;;;;;5039256;27;20686;-70
2022/12/20 07:41:37;;;;;;;54.33;20.00;;;-0.70;99.90;;;;;;5039822;28;20285;-69
2022/12/20 07:44:25;;;;;;;50.37;17.63;;;-0.50;99.90;;;;;;5042191;27;20247;-69
2022/12/20 07:47:12;;;;;;;49.57;17.83;;;-0.50;1.00;;;;;;5044707;27;20238;-69
2022/12/20 07:50:00;;;;;;;58.20;20.17;;;-0.40;99.90;;;;;;5065259;27;20327;-69
2022/12/20 07:52:48;;;;;;;55.90;20.10;;;-0.40;1.00;;;;;;5040097;27;21565;-69
2022/12/20 07:55:35;;;;;;;38.57;12.37;;;-0.20;1.00;;;;;;5055738;27;20212;-70
2022/12/20 07:58:23;;;;;;;42.50;17.00;;;-0.20;1.00;;;;;;5070593;27;20435;-70
2022/12/20 08:01:11;;;;;;;46.87;19.40;;;-0.10;1.00;;;;;;5048964;27;20280;-69
2022/12/20 08:04:00;;;;;;;42.20;15.97;;;0.00;1.00;;;;;;5051257;27;20205;-70
2022/12/20 08:06:49;;;;;;;49.60;18.47;;;0.20;1.00;;;;;;5029100;27;20205;-69
2022/12/20 08:09:37;;;;;;;44.33;16.67;;;0.30;1.00;;;;;;5040942;27;20216;-69
2022/12/20 08:12:24;;;;;;;44.23;17.70;;;0.30;1.00;;;;;;5074521;27;20291;-70
2022/12/20 08:15:11;;;;;;;46.53;18.07;;;0.10;1.00;;;;;;5038691;28;20216;-70
2022/12/20 08:17:59;;;;;;;48.60;19.33;;;0.20;1.00;;;;;;5040867;27;20760;-70
2022/12/20 08:20:46;;;;;;;52.33;17.80;;;0.30;1.00;;;;;;5043765;27;20284;-69
2022/12/20 08:23:35;;;;;;;51.57;18.93;;;0.30;1.00;;;;;;5044449;27;20262;-70
2022/12/20 08:26:22;;;;;;;69.80;24.67;;;0.40;1.00;;;;;;5056917;27;20205;-70
2022/12/20 08:29:09;;;;;;;42.97;14.77;;;0.30;1.00;;;;;;5060921;27;20201;-69
2022/12/20 08:31:56;;;;;;;60.83;18.47;;;0.50;1.00;;;;;;5053645;27;20268;-70
2022/12/20 08:34:43;;;;;;;50.70;19.67;;;0.50;1.00;;;;;;5045071;27;20202;-69
2022/12/20 08:37:31;;;;;;;47.63;17.73;;;0.10;1.00;;;;;;5101586;27;20229;-69
2022/12/20 08:40:19;;;;;;;56.80;19.80;;;0.10;1.00;;;;;;5049983;27;20211;-70
2022/12/20 08:43:07;;;;;;;47.20;17.73;;;0.30;1.00;;;;;;5044366;27;20221;-70
2022/12/20 08:45:54;;;;;;;53.00;21.13;;;0.60;1.00;;;;;;5087312;27;20252;-70
2022/12/20 08:48:41;;;;;;;54.20;20.83;;;0.70;1.00;;;;;;5045373;27;20206;-70
2022/12/20 08:51:28;;;;;;;53.37;19.53;;;0.60;1.00;;;;;;5050284;27;20295;-70
2022/12/20 08:54:16;;;;;;;53.23;20.03;;;0.70;1.00;;;;;;5041645;27;20236;-70
2022/12/20 08:57:05;;;;;;;54.83;20.13;;;0.70;1.00;;;;;;5040307;28;20802;-69
2022/12/20 08:59:52;;;;;;;53.63;21.07;;;0.60;1.00;;;;;;5054936;27;20288;-69
2022/12/20 09:02:40;;;;;;;52.20;19.97;;;0.50;1.00;;;;;;5044321;27;20647;-70
2022/12/20 09:05:27;;;;;;;53.27;20.83;;;0.90;1.00;;;;;;5038556;27;20256;-70
2022/12/20 09:08:14;;;;;;;54.60;21.87;;;1.30;1.00;;;;;;5052413;27;20683;-70
2022/12/20 09:11:04;;;;;;;54.20;21.37;;;1.60;1.00;;;;;;5045780;27;20221;-70
2022/12/20 09:13:54;;;;;;;55.20;20.47;;;2.00;1.00;;;;;;5039694;27;20217;-70
2022/12/20 09:16:41;;;;;;;52.83;21.10;;;1.80;1.00;;;;;;5046065;27;20249;-70
2022/12/20 09:19:29;;;;;;;62.00;22.87;;;1.50;1.00;;;;;;5053838;27;20209;-70
2022/12/20 09:22:17;;;;;;;59.73;20.93;;;1.80;1.00;;;;;;5038657;27;20206;-70
2022/12/20 09:25:05;;;;;;;55.13;20.97;;;2.10;1.00;;;;;;5034460;28;20240;-69
2022/12/20 09:27:54;;;;;;;58.27;22.53;;;2.00;1.00;;;;;;5053767;27;20285;-70
2022/12/20 09:30:42;;;;;;;46.83;19.23;;;2.10;1.00;;;;;;5040363;27;20586;-70
2022/12/20 09:33:30;;;;;;;58.97;22.73;;;2.30;1.00;;;;;;5031785;28;20321;-69
2022/12/20 09:36:18;;;;;;;59.27;22.93;;;2.60;1.00;;;;;;5043229;27;20208;-70
2022/12/20 09:39:05;;;;;;;49.63;20.17;;;3.10;1.00;;;;;;5044892;27;20296;-69
2022/12/20 09:41:53;;;;;;;45.33;18.33;;;3.30;1.00;;;;;;5045141;28;20205;-70
2022/12/20 09:44:40;;;;;;;48.70;19.20;;;3.60;1.00;;;;;;5036640;27;20664;-70
2022/12/20 09:47:29;;;;;;;46.33;18.73;;;3.60;1.00;;;;;;5039674;27;20202;-70
2022/12/20 09:50:16;;;;;;;39.27;16.40;;;3.10;1.00;;;;;;5045601;27;20690;-70
2022/12/20 09:53:11;;;;;;;43.30;17.40;;;2.50;1.00;;;;;;5027937;27;20328;-70
2022/12/20 09:56:00;;;;;;;51.30;20.47;;;2.10;1.00;;;;;;5045443;27;20224;-69
2022/12/20 09:59:00;;;;;;;47.57;20.47;;;1.70;1.00;;;;;;5046520;27;20202;-70
2022/12/20 10:01:48;;;;;;;47.13;17.93;;;1.80;1.00;;;;;;5029375;27;20308;-69
2022/12/20 10:04:37;;;;;;;47.13;18.93;;;1.90;1.00;;;;;;5043042;27;20205;-70
2022/12/20 10:07:31;;;;;;;46.83;18.73;;;2.10;1.00;;;;;;5063139;27;20648;-70
2022/12/20 10:10:48;;;;;;;41.00;16.07;;;2.00;1.00;;;;;;5026875;28;20764;-70
2022/12/20 10:13:45;;;;;;;49.00;20.17;;;2.30;1.00;;;;;;5036978;27;20285;-70
2022/12/20 10:16:37;;;;;;;48.27;18.67;;;2.30;1.00;;;;;;5042354;27;20213;-70
2022/12/20 10:19:39;;;;;;;45.07;17.63;;;2.60;1.00;;;;;;5043505;27;20675;-71
2022/12/20 10:22:28;;;;;;;46.93;17.03;;;2.70;1.00;;;;;;5042203;27;20200;-70
2022/12/20 10:25:17;;;;;;;47.13;18.73;;;3.00;1.00;;;;;;5037005;28;20245;-69
2022/12/20 10:28:05;;;;;;;45.83;18.73;;;3.50;1.00;;;;;;5041009;27;20208;-69
2022/12/20 10:30:52;;;;;;;41.00;16.50;;;3.40;1.00;;;;;;5042679;27;20198;-70
2022/12/20 10:33:40;;;;;;;52.37;17.53;;;3.50;1.00;;;;;;5074729;27;20231;-70
2022/12/20 10:36:29;;;;;;;54.33;19.43;;;3.30;1.00;;;;;;5039467;28;20262;-70
2022/12/20 10:39:16;;;;;;;52.53;18.97;;;3.50;1.00;;;;;;5042098;28;20590;-70
2022/12/20 10:42:04;;;;;;;47.17;18.83;;;2.80;1.00;;;;;;5043092;27;20776;-70
2022/12/20 10:44:51;;;;;;;51.00;19.27;;;2.70;1.00;;;;;;5042118;27;20561;-69
2022/12/20 10:47:40;;;;;;;51.97;20.30;;;2.40;1.00;;;;;;5079670;27;20695;-69
2022/12/20 10:50:28;;;;;;;37.70;14.13;;;2.60;1.00;;;;;;5049608;27;20318;-69
2022/12/20 10:53:26;;;;;;;44.27;18.70;;;2.30;1.00;;;;;;5044317;27;20229;-69
2022/12/20 10:56:17;;;;;;;43.73;18.07;;;2.20;1.00;;;;;;5040568;27;20209;-70
2022/12/20 10:59:25;;;;;;;41.00;17.27;;;1.80;1.00;;;;;;5032956;28;20198;-70
2022/12/20 11:02:25;;;;;;;47.53;17.80;;;1.70;1.00;;;;;;5046274;27;20280;-69
2022/12/20 11:05:23;;;;;;;45.97;18.60;;;1.80;1.00;;;;;;5045004;27;20197;-70
2022/12/20 11:08:14;;;;;;;46.27;18.17;;;1.90;1.00;;;;;;5056882;27;20240;-70
2022/12/20 11:11:15;;;;;;;50.83;20.53;;;1.80;1.00;;;;;;5039184;27;20541;-69
2022/12/20 11:14:13;;;;;;;51.43;20.10;;;1.70;1.00;;;;;;5046675;27;20213;-70
2022/12/20 11:17:04;;;;;;;53.53;19.63;;;1.80;1.00;;;;;;5051919;27;20218;-70
2022/12/20 11:20:14;;;;;;;49.63;19.90;;;1.70;1.00;;;;;;5079236;27;20658;-69
2022/12/20 11:23:08;;;;;;;51.23;19.73;;;1.80;1.00;;;;;;5023811;27;20198;-69
2022/12/20 11:26:04;;;;;;;44.17;17.60;;;1.90;1.00;;;;;;5060226;27;20217;-70
2022/12/20 11:29:00;;;;;;;46.37;19.07;;;1.70;1.00;;;;;;5048515;27;20790;-70
2022/12/20 11:31:51;;;;;;;46.57;18.37;;;1.80;1.00;;;;;;5036394;27;20254;-68
2022/12/20 11:34:42;;;;;;;49.17;20.00;;;1.80;1.00;;;;;;5045561;27;20205;-70
2022/12/20 11:37:32;;;;;;;49.50;19.67;;;2.00;1.00;;;;;;5051091;27;20239;-69
2022/12/20 11:40:29;;;;;;;55.63;21.20;;;2.20;1.00;;;;;;5057186;27;20870;-69
2022/12/20 11:43:37;;;;;;;48.53;19.43;;;2.10;1.00;;;;;;5072359;27;20197;-69
2022/12/20 11:46:34;;;;;;;51.10;20.07;;;2.10;1.00;;;;;;5042755;27;20295;-69
2022/12/20 11:49:48;;;;;;;54.43;20.10;;;2.40;1.00;;;;;;5041847;27;20207;-70
2022/12/20 11:52:36;;;;;;;48.70;19.37;;;2.00;1.00;;;;;;5039809;27;20558;-70
2022/12/20 11:55:26;;;;;;;45.93;18.50;;;2.30;1.00;;;;;;5052237;28;20262;-69
2022/12/20 11:58:16;;;;;;;52.93;20.33;;;2.40;1.00;;;;;;5052348;27;20298;-69
2022/12/20 12:01:06;;;;;;;49.53;19.57;;;2.30;1.00;;;;;;5066011;27;20201;-70
2022/12/20 12:04:03;;;;;;;46.07;18.43;;;2.30;1.00;;;;;;5056425;27;20686;-69
2022/12/20 12:06:53;;;;;;;44.70;18.13;;;2.30;1.00;;;;;;5069048;27;20309;-69
2022/12/20 12:09:42;;;;;;;50.77;18.63;;;2.20;1.00;;;;;;5065714;27;20205;-69
2022/12/20 12:12:31;;;;;;;46.00;19.27;;;2.30;1.00;;;;;;5041510;27;20210;-69
2022/12/20 12:15:22;;;;;;;41.43;17.47;;;2.20;1.00;;;;;;5039245;27;20208;-70
2022/12/20 12:18:13;;;;;;;47.23;18.87;;;2.40;1.00;;;;;;5037638;27;20229;-69
2022/12/20 12:21:04;;;;;;;50.97;18.93;;;2.50;1.00;;;;;;5042510;27;20352;-68
2022/12/20 12:23:58;;;;;;;41.37;17.60;;;1.80;1.00;;;;;;5034430;27;20209;-68
2022/12/20 12:26:46;;;;;;;43.73;16.07;;;2.10;1.00;;;;;;5040256;27;20239;-69
2022/12/20 12:29:33;;;;;;;46.87;18.60;;;1.90;1.00;;;;;;5055132;27;20239;-69
2022/12/20 12:32:24;;;;;;;44.93;16.80;;;1.90;1.00;;;;;;5037772;28;20740;-70
2022/12/20 12:35:38;;;;;;;53.30;20.63;;;2.10;1.00;;;;;;5040756;27;20413;-68
2022/12/20 12:38:38;;;;;;;56.13;23.30;;;2.30;1.00;;;;;;5041880;27;20203;-68
2022/12/20 12:41:59;;;;;;;56.37;22.43;;;2.70;1.00;;;;;;5039158;27;20212;-69
2022/12/20 12:44:49;;;;;;;44.43;19.43;;;2.50;1.00;;;;;;5048818;27;20209;-70
2022/12/20 12:47:37;;;;;;;48.03;19.73;;;2.70;1.00;;;;;;5036204;27;20198;-70
2022/12/20 12:50:28;;;;;;;49.90;20.57;;;2.60;1.00;;;;;;5040005;27;20210;-69
2022/12/20 12:53:16;;;;;;;48.47;19.90;;;2.70;1.00;;;;;;5067084;27;20677;-69
2022/12/20 12:56:37;;;;;;;49.00;18.70;;;2.50;1.00;;;;;;5038144;27;20202;-70
2022/12/20 12:59:46;;;;;;;60.13;21.07;;;2.10;1.00;;;;;;5039314;28;20214;-70
2022/12/20 13:02:49;;;;;;;55.87;20.67;;;2.10;1.00;;;;;;5035058;28;20208;-71
2022/12/20 13:05:36;;;;;;;49.63;20.87;;;2.00;1.00;;;;;;5062221;27;20197;-70
2022/12/20 13:08:24;;;;;;;49.73;20.07;;;2.00;1.00;;;;;;5047447;27;20249;-70
2022/12/20 13:11:12;;;;;;;46.57;18.93;;;2.00;1.00;;;;;;5040206;28;20210;-71
2022/12/20 13:14:43;;;;;;;50.33;18.77;;;1.90;1.00;;;;;;5060873;27;20201;-70
2022/12/20 13:17:50;;;;;;;53.07;19.70;;;1.90;1.00;;;;;;5027868;28;20205;-70
2022/12/20 13:20:37;;;;;;;48.70;18.77;;;2.00;1.00;;;;;;5040531;27;20209;-69
2022/12/20 13:23:25;;;;;;;52.77;19.60;;;2.00;1.00;;;;;;5043691;27;20209;-70
2022/12/20 13:26:49;;;;;;;49.73;19.63;;;1.80;1.00;;;;;;5060474;27;20201;-69
2022/12/20 13:29:50;;;;;;;49.13;20.50;;;1.80;1.00;;;;;;5039533;28;20234;-69
2022/12/20 13:32:57;;;;;;;41.60;18.20;;;1.60;1.00;;;;;;5036605;28;20212;-69
2022/12/20 13:35:54;;;;;;;47.87;19.73;;;1.70;1.00;;;;;;5078143;27;20341;-70
2022/12/20 13:38:52;;;;;;;51.70;20.33;;;1.70;1.00;;;;;;5040064;27;20202;-70
2022/12/20 13:41:45;;;;;;;53.17;20.10;;;1.60;1.00;;;;;;5038919;28;20198;-70
2022/12/20 13:44:36;;;;;;;47.93;20.30;;;1.50;1.00;;;;;;5025792;28;20243;-69
2022/12/20 13:47:40;;;;;;;61.80;22.87;;;1.50;1.00;;;;;;5027898;27;20210;-69
2022/12/20 13:50:30;;;;;;;55.23;22.07;;;1.50;1.00;;;;;;5036605;28;20241;-70
2022/12/20 13:53:18;;;;;;;54.10;20.97;;;1.50;1.00;;;;;;5031070;28;20622;-70
2022/12/20 13:56:27;;;;;;;53.10;21.20;;;1.40;1.00;;;;;;5035341;28;20205;-70
2022/12/20 13:59:15;;;;;;;50.70;22.00;;;1.30;1.00;;;;;;5033769;28;20687;-70
2022/12/20 14:02:04;;;;;;;53.83;20.93;;;1.30;1.00;;;;;;5033299;28;20201;-70
2022/12/20 14:04:58;;;;;;;51.50;20.70;;;1.30;1.00;;;;;;5042791;28;20212;-70
2022/12/20 14:07:46;;;;;;;61.53;22.13;;;1.20;1.00;;;;;;5029193;28;20245;-70
2022/12/20 14:10:34;;;;;;;53.90;20.97;;;1.30;1.00;;;;;;5033776;28;20217;-70
2022/12/20 14:13:22;;;;;;;58.13;22.07;;;1.10;1.00;;;;;;5032265;28;20223;-68
2022/12/20 14:16:13;;;;;;;52.23;19.87;;;1.00;1.00;;;;;;5039889;28;20205;-70
2022/12/20 14:19:03;;;;;;;51.50;21.37;;;1.20;1.00;;;;;;5027856;28;20213;-70
2022/12/20 14:21:52;;;;;;;51.50;20.87;;;1.30;1.00;;;;;;5036303;28;20584;-69
2022/12/20 14:24:40;;;;;;;51.73;20.70;;;1.20;1.00;;;;;;5042171;28;20197;-70
2022/12/20 14:27:27;;;;;;;54.03;19.43;;;1.00;1.00;;;;;;5036608;28;20678;-69
2022/12/20 14:30:30;;;;;;;57.00;21.57;;;0.80;1.00;;;;;;5037821;28;20354;-70
2022/12/20 14:33:26;;;;;;;53.43;20.47;;;0.80;1.00;;;;;;5031542;28;20580;-69
2022/12/20 14:36:18;;;;;;;58.10;22.00;;;0.80;1.00;;;;;;5028869;28;20278;-70
2022/12/20 14:39:23;;;;;;;47.80;19.43;;;0.70;1.00;;;;;;5044931;28;20196;-70
2022/12/20 14:42:13;;;;;;;57.23;20.77;;;0.60;1.00;;;;;;5039224;28;20349;-70
2022/12/20 14:45:05;;;;;;;58.20;21.57;;;0.50;1.00;;;;;;5037389;28;20611;-69
2022/12/20 14:48:00;;;;;;;52.67;21.10;;;0.50;1.00;;;;;;5027433;27;20206;-70